Time,TemperatureF,DewpointF,PressureIn,WindDirection,WindDirectionDegrees,WindSpeedMPH,WindSpeedGustMPH,Humidity,HourlyPrecipIn,Conditions,Clouds,dailyrainin,SoftwareType,DateUTC
2013-07-08 00:00:00,83.5,67.6,28.03,North,0,0.0,0.0,59,0.00,00:00,,0.00,WeatherDisplay:WD co,2013-07-07 21:00:00,
2013-07-08 00:10:00,83.3,67.5,28.02,North,8,0.0,4.0,59,0.00,00:05,,0.00,WeatherDisplay:WD co,2013-07-07 21:10:00,
2013-07-08 00:15:00,83.1,67.8,28.03,NE,40,0.0,4.0,60,0.00,00:15,,0.00,WeatherDisplay:WD co,2013-07-07 21:15:00,
2013-07-08 00:25:00,82.9,67.6,28.03,NNW,347,0.0,6.0,60,0.00,00:25,,0.00,WeatherDisplay:WD co,2013-07-07 21:25:00,
2013-07-08 00:30:00,82.9,67.6,28.03,East,95,0.0,4.0,60,0.00,00:30,,0.00,WeatherDisplay:WD co,2013-07-07 21:30:00,
2013-07-08 00:35:00,82.9,67.6,28.03,NE,37,2.0,4.0,60,0.00,00:35,,0.00,WeatherDisplay:WD co,2013-07-07 21:35:00,
2013-07-08 00:40:00,82.9,67.6,28.03,North,353,1.0,4.0,60,0.00,00:40,,0.00,WeatherDisplay:WD co,2013-07-07 21:40:00,
2013-07-08 00:45:00,83.1,67.3,28.03,ENE,61,2.0,5.0,59,0.00,00:45,,0.00,WeatherDisplay:WD co,2013-07-07 21:45:00,
2013-07-08 00:50:00,83.1,67.3,28.03,East,79,0.0,2.0,59,0.00,00:50,,0.00,WeatherDisplay:WD co,2013-07-07 21:50:00,
2013-07-08 00:55:00,82.8,67.0,28.03,NNW,334,2.0,7.0,59,0.00,00:55,,0.00,WeatherDisplay:WD co,2013-07-07 21:55:00,
2013-07-08 01:05:00,83.3,67.5,28.03,NE,55,0.0,12.0,59,0.00,01:05,,0.00,WeatherDisplay:WD co,2013-07-07 22:05:00,
2013-07-08 01:10:00,83.3,67.5,28.03,NE,45,0.0,2.0,59,0.00,01:10,,0.00,WeatherDisplay:WD co,2013-07-07 22:10:00,
2013-07-08 01:15:00,82.9,67.1,28.03,NNE,21,0.0,5.0,59,0.00,01:15,,0.00,WeatherDisplay:WD co,2013-07-07 22:15:00,
2013-07-08 01:25:00,82.6,67.3,28.03,NE,38,0.0,4.0,60,0.00,01:25,,0.00,WeatherDisplay:WD co,2013-07-07 22:25:00,
2013-07-08 01:30:00,82.4,67.1,28.03,NE,54,0.0,3.0,60,0.00,01:30,,0.00,WeatherDisplay:WD co,2013-07-07 22:30:00,
2013-07-08 01:40:00,82.0,67.3,28.03,NNW,343,0.0,7.0,61,0.00,01:40,,0.00,WeatherDisplay:WD co,2013-07-07 22:40:00,
2013-07-08 01:45:00,81.9,67.1,28.03,NNE,23,3.0,5.0,61,0.00,01:45,,0.00,WeatherDisplay:WD co,2013-07-07 22:45:00,
2013-07-08 01:50:00,81.9,67.1,28.03,NE,46,5.0,8.0,61,0.00,01:50,,0.00,WeatherDisplay:WD co,2013-07-07 22:50:00,
2013-07-08 02:00:00,82.0,67.3,28.03,ENE,68,2.0,5.0,61,0.00,02:00,,0.00,WeatherDisplay:WD co,2013-07-07 23:00:00,
2013-07-08 02:05:00,82.0,67.3,28.03,NNE,25,1.0,5.0,61,0.00,02:05,,0.00,WeatherDisplay:WD co,2013-07-07 23:05:00,
2013-07-08 02:10:00,82.0,67.3,28.03,NE,48,1.0,6.0,61,0.00,02:10,,0.00,WeatherDisplay:WD co,2013-07-07 23:10:00,
2013-07-08 02:15:00,81.9,67.1,28.03,ENE,67,1.0,4.0,61,0.00,02:15,,0.00,WeatherDisplay:WD co,2013-07-07 23:15:00,
2013-07-08 02:20:00,81.9,67.1,28.03,NE,41,3.0,8.0,61,0.00,02:20,,0.00,WeatherDisplay:WD co,2013-07-07 23:20:00,
2013-07-08 02:25:00,81.7,66.9,28.03,NE,38,0.0,4.0,61,0.00,02:25,,0.00,WeatherDisplay:WD co,2013-07-07 23:25:00,
2013-07-08 02:30:00,81.7,67.4,28.03,ENE,59,1.0,6.0,62,0.00,02:30,,0.00,WeatherDisplay:WD co,2013-07-07 23:30:00,
2013-07-08 02:35:00,81.5,67.2,28.03,NE,52,3.0,6.0,62,0.00,02:35,,0.00,WeatherDisplay:WD co,2013-07-07 23:35:00,
2013-07-08 02:40:00,81.5,67.2,28.03,NE,47,1.0,5.0,62,0.00,02:40,,0.00,WeatherDisplay:WD co,2013-07-07 23:40:00,
2013-07-08 02:55:00,81.3,67.1,28.02,NE,37,1.0,4.0,62,0.00,02:55,,0.00,WeatherDisplay:WD co,2013-07-07 23:55:00,
2013-07-08 03:00:00,81.1,66.9,28.02,NE,42,0.0,4.0,62,0.00,03:00,,0.00,WeatherDisplay:WD co,2013-07-08 00:00:00,
2013-07-08 03:05:00,81.0,66.7,28.02,ENE,60,0.0,2.0,62,0.00,03:05,,0.00,WeatherDisplay:WD co,2013-07-08 00:05:00,
2013-07-08 03:10:00,81.0,66.7,28.02,ENE,60,0.0,2.0,62,0.00,03:05,,0.00,WeatherDisplay:WD co,2013-07-08 00:10:00,
2013-07-08 03:15:00,81.1,66.9,28.02,ENE,61,3.0,6.0,62,0.00,03:15,,0.00,WeatherDisplay:WD co,2013-07-08 00:15:00,
2013-07-08 03:20:00,81.3,66.6,28.02,ENE,60,2.0,6.0,61,0.00,03:20,,0.00,WeatherDisplay:WD co,2013-07-08 00:20:00,
2013-07-08 03:25:00,81.3,66.6,28.02,ENE,65,2.0,7.0,61,0.00,03:25,,0.00,WeatherDisplay:WD co,2013-07-08 00:25:00,
2013-07-08 03:30:00,81.5,66.8,28.02,NE,56,1.0,7.0,61,0.00,03:30,,0.00,WeatherDisplay:WD co,2013-07-08 00:30:00,
2013-07-08 03:35:00,81.3,66.6,28.02,NE,40,2.0,6.0,61,0.00,03:35,,0.00,WeatherDisplay:WD co,2013-07-08 00:35:00,
2013-07-08 03:40:00,81.3,66.6,28.01,NE,50,2.0,8.0,61,0.00,03:40,,0.00,WeatherDisplay:WD co,2013-07-08 00:40:00,
2013-07-08 03:45:00,81.3,66.6,28.02,ENE,59,3.0,8.0,61,0.00,03:45,,0.00,WeatherDisplay:WD co,2013-07-08 00:45:00,
2013-07-08 03:50:00,81.3,66.6,28.02,ENE,59,1.0,7.0,61,0.00,03:50,,0.00,WeatherDisplay:WD co,2013-07-08 00:50:00,
2013-07-08 03:55:00,81.3,66.6,28.02,NE,46,0.0,6.0,61,0.00,03:55,,0.00,WeatherDisplay:WD co,2013-07-08 00:55:00,
2013-07-08 04:00:00,81.3,66.6,28.02,NE,35,0.0,6.0,61,0.00,04:00,,0.00,WeatherDisplay:WD co,2013-07-08 01:00:00,
2013-07-08 04:05:00,81.3,66.6,28.01,ENE,68,0.0,7.0,61,0.00,04:05,,0.00,WeatherDisplay:WD co,2013-07-08 01:05:00,
2013-07-08 04:10:00,81.3,66.1,28.02,ENE,57,1.0,6.0,60,0.00,04:10,,0.00,WeatherDisplay:WD co,2013-07-08 01:10:00,
2013-07-08 04:25:00,81.5,65.3,28.01,ENE,57,3.0,12.0,58,0.00,04:20,,0.00,WeatherDisplay:WD co,2013-07-08 01:25:00,
2013-07-08 04:30:00,81.5,65.8,28.01,NE,38,2.0,7.0,59,0.00,04:30,,0.00,WeatherDisplay:WD co,2013-07-08 01:30:00,
2013-07-08 04:35:00,81.3,65.6,28.02,NE,44,0.0,0.0,59,0.00,04:35,,0.00,WeatherDisplay:WD co,2013-07-08 01:35:00,
2013-07-08 04:50:00,80.8,66.1,28.02,NE,48,1.0,8.0,61,0.00,04:50,,0.00,WeatherDisplay:WD co,2013-07-08 01:50:00,
2013-07-08 04:55:00,80.8,66.1,28.02,NE,48,1.0,8.0,61,0.00,04:50,,0.00,WeatherDisplay:WD co,2013-07-08 01:55:00,
2013-07-08 05:00:00,80.6,65.9,28.01,NE,34,1.0,5.0,61,0.00,05:00,,0.00,WeatherDisplay:WD co,2013-07-08 02:00:00,
2013-07-08 05:05:00,80.6,65.9,28.01,ENE,73,0.0,8.0,61,0.00,05:05,,0.00,WeatherDisplay:WD co,2013-07-08 02:05:00,
2013-07-08 05:15:00,80.6,65.9,28.02,NE,48,1.0,8.0,61,0.00,05:15,,0.00,WeatherDisplay:WD co,2013-07-08 02:15:00,
2013-07-08 05:25:00,80.2,66.0,28.02,North,352,0.0,0.0,62,0.00,05:25,,0.00,WeatherDisplay:WD co,2013-07-08 02:25:00,
2013-07-08 05:40:00,79.9,66.2,28.02,NNE,16,0.0,6.0,63,0.00,05:35,,0.00,WeatherDisplay:WD co,2013-07-08 02:40:00,
2013-07-08 05:50:00,79.7,66.0,28.02,NE,50,0.0,6.0,63,0.00,05:50,,0.00,WeatherDisplay:WD co,2013-07-08 02:50:00,
2013-07-08 05:55:00,79.7,66.0,28.02,NE,50,0.0,6.0,63,0.00,05:50,,0.00,WeatherDisplay:WD co,2013-07-08 02:55:00,
2013-07-08 06:00:00,79.9,66.2,28.03,East,82,1.0,6.0,63,0.00,06:00,,0.00,WeatherDisplay:WD co,2013-07-08 03:00:00,
2013-07-08 06:10:00,79.7,66.0,28.03,ENE,60,3.0,5.0,63,0.00,06:10,,0.00,WeatherDisplay:WD co,2013-07-08 03:10:00,
2013-07-08 06:20:00,79.7,66.0,28.03,East,90,3.0,5.0,63,0.00,06:20,,0.00,WeatherDisplay:WD co,2013-07-08 03:20:00,
2013-07-08 06:25:00,79.7,66.0,28.03,ENE,78,3.0,6.0,63,0.00,06:25,,0.00,WeatherDisplay:WD co,2013-07-08 03:25:00,
2013-07-08 06:30:00,79.9,66.2,28.03,NE,52,3.0,7.0,63,0.00,06:30,,0.00,WeatherDisplay:WD co,2013-07-08 03:30:00,
2013-07-08 06:35:00,79.9,66.2,28.03,NE,52,3.0,7.0,63,0.00,06:30,,0.00,WeatherDisplay:WD co,2013-07-08 03:35:00,
2013-07-08 06:45:00,79.9,66.2,28.03,ENE,60,1.0,4.0,63,0.00,06:40,,0.00,WeatherDisplay:WD co,2013-07-08 03:45:00,
2013-07-08 06:55:00,79.9,66.6,28.03,NNE,31,0.0,3.0,64,0.00,06:50,,0.00,WeatherDisplay:WD co,2013-07-08 03:55:00,
2013-07-08 07:00:00,80.1,66.8,28.03,NE,51,1.0,7.0,64,0.00,07:00,,0.00,WeatherDisplay:WD co,2013-07-08 04:00:00,
2013-07-08 07:05:00,80.2,67.0,28.03,NE,38,0.0,4.0,64,0.00,07:05,,0.00,WeatherDisplay:WD co,2013-07-08 04:05:00,
2013-07-08 07:15:00,82.0,68.2,28.04,NE,54,0.0,3.0,63,0.00,07:15,,0.00,WeatherDisplay:WD co,2013-07-08 04:15:00,
2013-07-08 07:20:00,83.5,68.1,28.03,ENE,78,0.0,7.0,60,0.00,07:20,,0.00,WeatherDisplay:WD co,2013-07-08 04:20:00,
2013-07-08 07:30:00,84.2,68.8,28.04,NE,50,1.0,6.0,60,0.00,07:30,,0.00,WeatherDisplay:WD co,2013-07-08 04:30:00,
2013-07-08 07:35:00,84.6,69.1,28.03,ENE,64,0.0,8.0,60,0.00,07:35,,0.00,WeatherDisplay:WD co,2013-07-08 04:35:00,
2013-07-08 07:40:00,85.3,69.3,28.04,East,83,2.0,5.0,59,0.00,07:40,,0.00,WeatherDisplay:WD co,2013-07-08 04:40:00,
2013-07-08 07:45:00,85.3,69.8,28.03,ENE,59,0.0,6.0,60,0.00,07:45,,0.00,WeatherDisplay:WD co,2013-07-08 04:45:00,
2013-07-08 07:50:00,86.2,70.2,28.04,ENE,77,0.0,5.0,59,0.00,07:50,,0.00,WeatherDisplay:WD co,2013-07-08 04:50:00,
2013-07-08 07:55:00,86.2,70.2,28.04,ENE,77,0.0,5.0,59,0.00,07:50,,0.00,WeatherDisplay:WD co,2013-07-08 04:55:00,
2013-07-08 08:00:00,87.3,70.7,28.04,East,101,3.0,8.0,58,0.00,07:55,,0.00,WeatherDisplay:WD co,2013-07-08 05:00:00,
2013-07-08 08:10:00,86.7,70.7,28.04,NNE,29,3.0,6.0,59,0.00,08:10,,0.00,WeatherDisplay:WD co,2013-07-08 05:10:00,
2013-07-08 08:15:00,86.7,70.7,28.04,NNE,29,3.0,6.0,59,0.00,08:10,,0.00,WeatherDisplay:WD co,2013-07-08 05:15:00,
2013-07-08 08:35:00,88.5,71.9,28.03,NNE,29,0.0,4.0,58,0.00,08:35,,0.00,WeatherDisplay:WD co,2013-07-08 05:35:00,
2013-07-08 08:40:00,90.9,72.5,28.04,NW,315,0.0,2.0,55,0.00,08:40,,0.00,WeatherDisplay:WD co,2013-07-08 05:40:00,
2013-07-08 08:45:00,90.9,72.5,28.04,NW,315,0.0,2.0,55,0.00,08:40,,0.00,WeatherDisplay:WD co,2013-07-08 05:45:00,
2013-07-08 08:50:00,89.6,71.3,28.04,NE,45,1.0,10.0,55,0.00,08:50,,0.00,WeatherDisplay:WD co,2013-07-08 05:50:00,
2013-07-08 08:55:00,90.1,71.2,28.04,NNE,14,3.0,7.0,54,0.00,08:55,,0.00,WeatherDisplay:WD co,2013-07-08 05:55:00,
2013-07-08 09:00:00,89.2,71.5,28.04,NE,39,5.0,10.0,56,0.00,09:00,,0.00,WeatherDisplay:WD co,2013-07-08 06:00:00,
2013-07-08 09:05:00,89.1,71.8,28.04,NE,40,0.0,5.0,57,0.00,09:05,,0.00,WeatherDisplay:WD co,2013-07-08 06:05:00,
2013-07-08 09:10:00,90.1,71.8,28.04,ENE,64,2.0,6.0,55,0.00,09:10,,0.00,WeatherDisplay:WD co,2013-07-08 06:10:00,
2013-07-08 09:15:00,90.1,71.8,28.04,East,84,1.0,4.0,55,0.00,09:15,,0.00,WeatherDisplay:WD co,2013-07-08 06:15:00,
2013-07-08 09:20:00,90.0,71.6,28.04,ENE,74,3.0,11.0,55,0.00,09:20,,0.00,WeatherDisplay:WD co,2013-07-08 06:20:00,
2013-07-08 09:25:00,90.0,71.6,28.04,ENE,74,3.0,11.0,55,0.00,09:20,,0.00,WeatherDisplay:WD co,2013-07-08 06:25:00,
2013-07-08 09:30:00,90.7,72.3,28.04,ENE,65,1.0,5.0,55,0.00,09:30,,0.00,WeatherDisplay:WD co,2013-07-08 06:30:00,
2013-07-08 09:35:00,89.6,71.3,28.04,NE,46,1.0,11.0,55,0.00,09:35,,0.00,WeatherDisplay:WD co,2013-07-08 06:35:00,
2013-07-08 09:40:00,90.0,71.6,28.04,NE,45,6.0,8.0,55,0.00,09:40,,0.00,WeatherDisplay:WD co,2013-07-08 06:40:00,
2013-07-08 09:45:00,89.6,71.3,28.04,NE,50,2.0,10.0,55,0.00,09:45,,0.00,WeatherDisplay:WD co,2013-07-08 06:45:00,
2013-07-08 09:50:00,89.6,71.3,28.04,NE,50,2.0,10.0,55,0.00,09:45,,0.00,WeatherDisplay:WD co,2013-07-08 06:50:00,
2013-07-08 10:00:00,89.8,70.9,28.04,ENE,68,1.0,10.0,54,0.00,10:00,,0.00,WeatherDisplay:WD co,2013-07-08 07:00:00,
2013-07-08 10:10:00,89.8,70.4,28.04,ENE,59,2.0,9.0,53,0.00,10:05,,0.00,WeatherDisplay:WD co,2013-07-08 07:10:00,
2013-07-08 10:15:00,89.8,70.4,28.05,East,81,1.0,14.0,53,0.00,10:15,,0.00,WeatherDisplay:WD co,2013-07-08 07:15:00,
2013-07-08 10:20:00,90.1,69.6,28.05,ENE,57,6.0,11.0,51,0.00,10:20,,0.00,WeatherDisplay:WD co,2013-07-08 07:20:00,
2013-07-08 10:25:00,90.1,69.6,28.05,ENE,57,6.0,11.0,51,0.00,10:20,,0.00,WeatherDisplay:WD co,2013-07-08 07:25:00,
2013-07-08 10:40:00,91.9,70.6,28.04,NE,42,2.0,7.0,50,0.00,10:40,,0.00,WeatherDisplay:WD co,2013-07-08 07:40:00,
2013-07-08 10:45:00,92.3,70.4,28.04,ENE,64,5.0,12.0,49,0.00,10:45,,0.00,WeatherDisplay:WD co,2013-07-08 07:45:00,
2013-07-08 10:50:00,91.4,70.1,28.04,NE,47,5.0,10.0,50,0.00,10:50,,0.00,WeatherDisplay:WD co,2013-07-08 07:50:00,
2013-07-08 10:55:00,91.4,70.1,28.04,NE,47,5.0,10.0,50,0.00,10:50,,0.00,WeatherDisplay:WD co,2013-07-08 07:55:00,
2013-07-08 11:05:00,92.1,70.2,28.05,NE,48,1.0,9.0,49,0.00,11:05,,0.00,WeatherDisplay:WD co,2013-07-08 08:05:00,
2013-07-08 11:10:00,93.0,69.8,28.05,ENE,57,0.0,11.0,47,0.00,11:10,,0.00,WeatherDisplay:WD co,2013-07-08 08:10:00,
2013-07-08 11:20:00,93.2,70.0,28.04,SSW,201,5.0,9.0,47,0.00,11:20,,0.00,WeatherDisplay:WD co,2013-07-08 08:20:00,
2013-07-08 11:40:00,94.5,70.5,28.05,NNE,31,3.0,8.0,46,0.00,11:40,,0.00,WeatherDisplay:WD co,2013-07-08 08:40:00,
2013-07-08 11:50:00,94.3,71.0,28.05,ENE,61,3.0,8.0,47,0.00,11:50,,0.00,WeatherDisplay:WD co,2013-07-08 08:50:00,
2013-07-08 11:55:00,93.6,69.7,28.05,ENE,71,3.0,14.0,46,0.00,11:55,,0.00,WeatherDisplay:WD co,2013-07-08 08:55:00,
2013-07-08 12:00:00,93.2,69.3,28.05,ENE,74,5.0,10.0,46,0.00,12:00,,0.00,WeatherDisplay:WD co,2013-07-08 09:00:00,
2013-07-08 12:10:00,94.1,70.2,28.05,ENE,59,2.0,10.0,46,0.00,12:10,,0.00,WeatherDisplay:WD co,2013-07-08 09:10:00,
2013-07-08 12:15:00,94.8,70.2,28.05,NNE,31,1.0,9.0,45,0.00,12:15,,0.00,WeatherDisplay:WD co,2013-07-08 09:15:00,
2013-07-08 12:20:00,95.2,70.5,28.05,NNE,28,3.0,9.0,45,0.00,12:20,,0.00,WeatherDisplay:WD co,2013-07-08 09:20:00,
2013-07-08 12:25:00,95.2,71.1,28.05,NNE,32,8.0,18.0,46,0.00,12:25,,0.00,WeatherDisplay:WD co,2013-07-08 09:25:00,
2013-07-08 12:30:00,94.5,71.1,28.05,NE,52,6.0,11.0,47,0.00,12:30,,0.00,WeatherDisplay:WD co,2013-07-08 09:30:00,
2013-07-08 12:35:00,95.2,70.5,28.05,NE,42,1.0,4.0,45,0.00,12:35,,0.00,WeatherDisplay:WD co,2013-07-08 09:35:00,
2013-07-08 12:40:00,95.7,71.0,28.05,ENE,59,1.0,4.0,45,0.00,12:40,,0.00,WeatherDisplay:WD co,2013-07-08 09:40:00,
2013-07-08 12:45:00,95.9,70.5,28.05,East,83,0.0,0.0,44,0.00,12:45,,0.00,WeatherDisplay:WD co,2013-07-08 09:45:00,
2013-07-08 12:50:00,95.2,69.2,28.05,NE,55,5.0,11.0,43,0.00,12:50,,0.00,WeatherDisplay:WD co,2013-07-08 09:50:00,
2013-07-08 12:55:00,95.2,69.2,28.05,NE,55,5.0,11.0,43,0.00,12:50,,0.00,WeatherDisplay:WD co,2013-07-08 09:55:00,
2013-07-08 13:05:00,95.0,70.3,28.04,ENE,78,3.0,9.0,45,0.00,13:05,,0.00,WeatherDisplay:WD co,2013-07-08 10:05:00,
2013-07-08 13:10:00,94.5,69.8,28.04,NNE,25,1.0,11.0,45,0.00,13:10,,0.00,WeatherDisplay:WD co,2013-07-08 10:10:00,
2013-07-08 13:15:00,95.9,71.1,28.04,NNE,14,2.0,6.0,45,0.00,13:15,,0.00,WeatherDisplay:WD co,2013-07-08 10:15:00,
2013-07-08 13:25:00,95.4,71.3,28.04,NE,55,1.0,9.0,46,0.00,13:25,,0.00,WeatherDisplay:WD co,2013-07-08 10:25:00,
2013-07-08 13:30:00,96.3,71.5,28.04,NNE,28,2.0,5.0,45,0.00,13:30,,0.00,WeatherDisplay:WD co,2013-07-08 10:30:00,
2013-07-08 13:35:00,96.8,71.3,28.03,North,354,1.0,4.0,44,0.00,13:35,,0.00,WeatherDisplay:WD co,2013-07-08 10:35:00,
2013-07-08 13:45:00,95.9,71.8,28.03,ENE,61,0.0,5.0,46,0.00,13:45,,0.00,WeatherDisplay:WD co,2013-07-08 10:45:00,
2013-07-08 13:55:00,97.0,71.5,28.03,NNW,336,2.0,6.0,44,0.00,13:55,,0.00,WeatherDisplay:WD co,2013-07-08 10:55:00,
2013-07-08 14:00:00,96.8,72.0,28.03,NE,42,1.0,8.0,45,0.00,14:00,,0.00,WeatherDisplay:WD co,2013-07-08 11:00:00,
2013-07-08 14:05:00,97.5,71.3,28.03,NE,53,5.0,10.0,43,0.00,14:05,,0.00,WeatherDisplay:WD co,2013-07-08 11:05:00,
2013-07-08 14:15:00,96.3,70.8,28.03,ENE,75,0.0,10.0,44,0.00,14:15,,0.00,WeatherDisplay:WD co,2013-07-08 11:15:00,
2013-07-08 14:20:00,96.4,71.0,28.03,ENE,71,1.0,6.0,44,0.00,14:20,,0.00,WeatherDisplay:WD co,2013-07-08 11:20:00,
2013-07-08 14:30:00,95.9,70.5,28.03,ENE,63,0.0,9.0,44,0.00,14:25,,0.00,WeatherDisplay:WD co,2013-07-08 11:30:00,
2013-07-08 14:35:00,96.3,70.8,28.03,NE,37,1.0,8.0,44,0.00,14:35,,0.00,WeatherDisplay:WD co,2013-07-08 11:35:00,
2013-07-08 14:45:00,97.2,70.9,28.02,ENE,58,0.0,15.0,43,0.00,14:45,,0.00,WeatherDisplay:WD co,2013-07-08 11:45:00,
2013-07-08 14:50:00,98.1,71.1,28.02,ENE,73,3.0,8.0,42,0.00,14:50,,0.00,WeatherDisplay:WD co,2013-07-08 11:50:00,
2013-07-08 14:55:00,97.9,71.6,28.03,ENE,60,0.0,8.0,43,0.00,14:55,,0.00,WeatherDisplay:WD co,2013-07-08 11:55:00,
2013-07-08 15:00:00,99.1,72.0,28.02,East,80,0.0,5.0,42,0.00,15:00,,0.00,WeatherDisplay:WD co,2013-07-08 12:00:00,
2013-07-08 15:05:00,98.6,70.8,28.02,NE,51,3.0,10.0,41,0.00,15:05,,0.00,WeatherDisplay:WD co,2013-07-08 12:05:00,
2013-07-08 15:20:00,97.5,71.3,28.02,ENE,75,1.0,5.0,43,0.00,15:20,,0.00,WeatherDisplay:WD co,2013-07-08 12:20:00,
2013-07-08 15:25:00,97.5,71.3,28.02,ENE,75,1.0,5.0,43,0.00,15:20,,0.00,WeatherDisplay:WD co,2013-07-08 12:25:00,
2013-07-08 15:35:00,97.0,70.8,28.02,North,10,1.0,11.0,43,0.00,15:30,,0.00,WeatherDisplay:WD co,2013-07-08 12:35:00,
2013-07-08 15:40:00,97.3,71.1,28.01,NE,48,0.0,7.0,43,0.00,15:40,,0.00,WeatherDisplay:WD co,2013-07-08 12:40:00,
2013-07-08 15:45:00,97.7,70.7,28.01,ENE,74,1.0,8.0,42,0.00,15:45,,0.00,WeatherDisplay:WD co,2013-07-08 12:45:00,
2013-07-08 15:50:00,97.7,70.7,28.01,ENE,74,1.0,8.0,42,0.00,15:45,,0.00,WeatherDisplay:WD co,2013-07-08 12:50:00,
2013-07-08 15:55:00,97.9,70.9,28.01,ENE,57,3.0,6.0,42,0.00,15:50,,0.00,WeatherDisplay:WD co,2013-07-08 12:55:00,
2013-07-08 16:10:00,97.7,70.0,28.01,East,83,3.0,9.0,41,0.00,16:10,,0.00,WeatherDisplay:WD co,2013-07-08 13:10:00,
2013-07-08 16:15:00,97.7,70.0,28.01,East,83,3.0,9.0,41,0.00,16:10,,0.00,WeatherDisplay:WD co,2013-07-08 13:15:00,
2013-07-08 16:20:00,96.8,69.2,28.00,NNE,22,3.0,8.0,41,0.00,16:20,,0.00,WeatherDisplay:WD co,2013-07-08 13:20:00,
2013-07-08 16:30:00,96.1,69.3,28.01,NNE,29,3.0,9.0,42,0.00,16:25,,0.00,WeatherDisplay:WD co,2013-07-08 13:30:00,
2013-07-08 16:35:00,95.9,69.1,28.00,NE,38,3.0,6.0,42,0.00,16:35,,0.00,WeatherDisplay:WD co,2013-07-08 13:35:00,
2013-07-08 16:40:00,96.4,69.6,28.00,NNE,20,0.0,5.0,42,0.00,16:40,,0.00,WeatherDisplay:WD co,2013-07-08 13:40:00,
2013-07-08 16:45:00,97.0,69.4,28.00,NNE,33,6.0,9.0,41,0.00,16:45,,0.00,WeatherDisplay:WD co,2013-07-08 13:45:00,
2013-07-08 16:55:00,96.3,68.7,27.99,East,89,1.0,10.0,41,0.00,16:50,,0.00,WeatherDisplay:WD co,2013-07-08 13:55:00,
2013-07-08 17:00:00,96.8,69.2,28.00,NE,44,5.0,12.0,41,0.00,17:00,,0.00,WeatherDisplay:WD co,2013-07-08 14:00:00,
2013-07-08 17:05:00,96.6,68.3,27.99,NE,47,6.0,11.0,40,0.00,17:05,,0.00,WeatherDisplay:WD co,2013-07-08 14:05:00,
2013-07-08 17:10:00,96.4,68.9,27.99,ENE,65,5.0,9.0,41,0.00,17:10,,0.00,WeatherDisplay:WD co,2013-07-08 14:10:00,
2013-07-08 17:15:00,96.4,68.9,27.99,ENE,65,5.0,9.0,41,0.00,17:10,,0.00,WeatherDisplay:WD co,2013-07-08 14:15:00,
2013-07-08 17:20:00,96.3,68.7,27.99,ENE,76,0.0,8.0,41,0.00,17:20,,0.00,WeatherDisplay:WD co,2013-07-08 14:20:00,
2013-07-08 17:35:00,96.6,68.3,27.99,NNE,28,0.0,6.0,40,0.00,17:35,,0.00,WeatherDisplay:WD co,2013-07-08 14:35:00,
2013-07-08 17:40:00,96.6,69.1,27.99,NE,44,1.0,7.0,41,0.00,17:40,,0.00,WeatherDisplay:WD co,2013-07-08 14:40:00,
2013-07-08 18:00:00,95.5,69.5,27.99,East,80,5.0,10.0,43,0.00,18:00,,0.00,WeatherDisplay:WD co,2013-07-08 15:00:00,
2013-07-08 18:05:00,95.0,69.0,27.99,ENE,71,3.0,11.0,43,0.00,18:05,,0.00,WeatherDisplay:WD co,2013-07-08 15:05:00,
2013-07-08 18:10:00,95.0,69.7,27.99,NE,48,2.0,11.0,44,0.00,18:10,,0.00,WeatherDisplay:WD co,2013-07-08 15:10:00,
2013-07-08 18:20:00,94.1,70.2,27.99,SE,141,6.0,11.0,46,0.00,18:20,,0.00,WeatherDisplay:WD co,2013-07-08 15:20:00,
2013-07-08 18:25:00,94.1,70.2,27.99,East,99,3.0,10.0,46,0.00,18:25,,0.00,WeatherDisplay:WD co,2013-07-08 15:25:00,
2013-07-08 18:40:00,94.6,69.3,27.99,NNE,20,0.0,8.0,44,0.00,18:40,,0.00,WeatherDisplay:WD co,2013-07-08 15:40:00,
2013-07-08 18:45:00,95.0,69.0,27.99,SW,229,1.0,6.0,43,0.00,18:45,,0.00,WeatherDisplay:WD co,2013-07-08 15:45:00,
2013-07-08 18:50:00,94.5,68.5,27.99,ENE,63,1.0,11.0,43,0.00,18:50,,0.00,WeatherDisplay:WD co,2013-07-08 15:50:00,
2013-07-08 19:00:00,93.6,67.7,27.99,NE,38,3.0,8.0,43,0.00,19:00,,0.00,WeatherDisplay:WD co,2013-07-08 16:00:00,
2013-07-08 19:05:00,92.8,67.7,27.99,NE,53,1.0,11.0,44,0.00,19:05,,0.00,WeatherDisplay:WD co,2013-07-08 16:05:00,
2013-07-08 19:10:00,91.8,66.7,27.99,NE,55,5.0,11.0,44,0.00,19:10,,0.00,WeatherDisplay:WD co,2013-07-08 16:10:00,
2013-07-08 19:15:00,91.2,66.9,27.99,ENE,71,6.0,10.0,45,0.00,19:15,,0.00,WeatherDisplay:WD co,2013-07-08 16:15:00,
2013-07-08 19:20:00,90.7,67.1,27.99,ENE,57,5.0,13.0,46,0.00,19:20,,0.00,WeatherDisplay:WD co,2013-07-08 16:20:00,
2013-07-08 19:30:00,90.1,66.6,27.99,East,82,1.0,9.0,46,0.00,19:30,,0.00,WeatherDisplay:WD co,2013-07-08 16:30:00,
2013-07-08 19:35:00,90.0,67.0,27.99,NE,45,3.0,8.0,47,0.00,19:35,,0.00,WeatherDisplay:WD co,2013-07-08 16:35:00,
2013-07-08 19:40:00,89.8,66.9,27.99,NNE,31,3.0,16.0,47,0.00,19:40,,0.00,WeatherDisplay:WD co,2013-07-08 16:40:00,
2013-07-08 19:51:00,89.4,66.5,28.00,NE,46,1.0,8.0,47,0.00,19:50,,0.00,WeatherDisplay:WD co,2013-07-08 16:51:00,
2013-07-08 20:05:00,88.9,66.7,28.00,ENE,71,5.0,9.0,48,0.00,20:05,,0.00,WeatherDisplay:WD co,2013-07-08 17:05:00,
2013-07-08 20:10:00,88.9,67.2,28.00,ESE,113,3.0,10.0,49,0.00,20:10,,0.00,WeatherDisplay:WD co,2013-07-08 17:10:00,
2013-07-08 20:15:00,88.7,67.7,28.00,East,98,5.0,8.0,50,0.00,20:15,,0.00,WeatherDisplay:WD co,2013-07-08 17:15:00,
2013-07-08 20:20:00,88.5,68.1,28.00,NE,48,3.0,9.0,51,0.00,20:20,,0.00,WeatherDisplay:WD co,2013-07-08 17:20:00,
2013-07-08 20:25:00,88.3,67.9,28.01,NE,47,5.0,11.0,51,0.00,20:25,,0.00,WeatherDisplay:WD co,2013-07-08 17:25:00,
2013-07-08 20:35:00,88.0,67.6,28.01,NE,52,2.0,8.0,51,0.00,20:35,,0.00,WeatherDisplay:WD co,2013-07-08 17:35:00,
2013-07-08 20:45:00,87.6,67.8,28.01,NNE,28,3.0,8.0,52,0.00,20:45,,0.00,WeatherDisplay:WD co,2013-07-08 17:45:00,
2013-07-08 20:50:00,87.6,67.8,28.01,NNE,25,0.0,10.0,52,0.00,20:50,,0.00,WeatherDisplay:WD co,2013-07-08 17:50:00,
2013-07-08 20:55:00,87.4,68.2,28.01,NNE,16,0.0,8.0,53,0.00,20:55,,0.00,WeatherDisplay:WD co,2013-07-08 17:55:00,
2013-07-08 21:15:00,87.3,68.0,28.02,NE,45,2.0,6.0,53,0.00,21:15,,0.00,WeatherDisplay:WD co,2013-07-08 18:15:00,
2013-07-08 21:25:00,87.1,67.9,28.02,ESE,119,2.0,8.0,53,0.00,21:25,,0.00,WeatherDisplay:WD co,2013-07-08 18:25:00,
2013-07-08 21:35:00,86.9,68.3,28.02,NE,44,2.0,5.0,54,0.00,21:35,,0.00,WeatherDisplay:WD co,2013-07-08 18:35:00,
2013-07-08 21:40:00,86.9,67.7,28.02,NE,35,0.0,7.0,53,0.00,21:40,,0.00,WeatherDisplay:WD co,2013-07-08 18:40:00,
2013-07-08 21:45:00,86.9,67.7,28.03,North,357,0.0,4.0,53,0.00,21:45,,0.00,WeatherDisplay:WD co,2013-07-08 18:45:00,
2013-07-08 21:56:00,86.7,67.5,28.03,West,275,0.0,0.0,53,0.00,21:55,,0.00,WeatherDisplay:WD co,2013-07-08 18:56:00,
2013-07-08 22:10:00,86.4,67.8,28.04,NE,45,0.0,3.0,54,0.00,22:10,,0.00,WeatherDisplay:WD co,2013-07-08 19:10:00,
2013-07-08 22:20:00,86.2,67.6,28.04,ENE,73,1.0,4.0,54,0.00,22:20,,0.00,WeatherDisplay:WD co,2013-07-08 19:20:00,
2013-07-08 22:35:00,85.6,67.6,28.04,NNE,33,0.0,1.0,55,0.00,22:35,,0.00,WeatherDisplay:WD co,2013-07-08 19:35:00,
2013-07-08 22:40:00,85.5,68.0,28.04,East,95,0.0,3.0,56,0.00,22:40,,0.00,WeatherDisplay:WD co,2013-07-08 19:40:00,
2013-07-08 22:50:00,85.3,67.8,28.05,East,97,0.0,4.0,56,0.00,22:50,,0.00,WeatherDisplay:WD co,2013-07-08 19:50:00,
2013-07-08 22:55:00,85.1,67.6,28.04,NNW,344,1.0,5.0,56,0.00,22:55,,0.00,WeatherDisplay:WD co,2013-07-08 19:55:00,
2013-07-08 23:10:00,84.9,68.0,28.04,NNE,28,0.0,5.0,57,0.00,23:10,,0.00,WeatherDisplay:WD co,2013-07-08 20:10:00,
2013-07-08 23:30:00,84.6,67.6,28.04,NNE,32,0.0,4.0,57,0.00,23:30,,0.00,WeatherDisplay:WD co,2013-07-08 20:30:00,
2013-07-08 23:35:00,84.4,67.5,28.04,NW,312,2.0,5.0,57,0.00,23:35,,0.00,WeatherDisplay:WD co,2013-07-08 20:35:00,
2013-07-08 23:40:00,84.4,67.5,28.04,NW,326,0.0,4.0,57,0.00,23:40,,0.00,WeatherDisplay:WD co,2013-07-08 20:40:00,
2013-07-08 23:45:00,84.2,67.3,28.04,NW,326,0.0,4.0,57,0.00,23:45,,0.00,WeatherDisplay:WD co,2013-07-08 20:45:00,
2013-07-08 23:55:00,84.4,67.5,28.04,NE,53,1.0,4.0,57,0.00,23:55,,0.00,WeatherDisplay:WD co,2013-07-08 20:55:00,